Bodfish, California
Current Conditions -  °F | °C
As of 6:15 AM on Tuesday 27 Jan 2015 (Local Time) from KTSP Reporting Station
Light Rain Light Rain  
Wind Chill: 40°   Ceiling: 2800
Heat Index: 45°   Visibility: 10mi
Dew Point: 45°   Wind: 9mph
Humidity: 100%   Direction: 110°ESE
Pressure: 30.19"   Gusts: NA
Location:  35.59°N, 118.49°W
Report Text: KTSP 271415Z AUTO 11008KT 10SM -RA BKN028 BKN037 OVC045 07/07 A3019 RMK AO2
Loading
Personal Weather Stations






























Interactive Weather Map New forecast layout! Learn more

10-Day Weather Forecast

Advertisements
Track Severe Weather on mobile